Time;durP1;ratioP1;P1;durP2;ratioP2;P2;SDS_P1;SDS_P2;PMS_P1;PMS_P2;Temp;Humidity;BMP_temperature;BMP_pressure;BME280_temperature;BME280_humidity;BME280_pressure;Samples;Min_cycle;Max_cycle;Signal;HPM_P1;HPM_P2
2023/09/14 00:00:13;;;;;;;1953.85;999.90;;;13.00;99.90;;;;;;4890916;29;20540;-86
2023/09/14 00:02:39;;;;;;;1999.90;999.90;;;13.00;99.90;;;;;;4895994;29;20484;-86
2023/09/14 00:05:06;;;;;;;1739.22;997.63;;;12.90;99.90;;;;;;4896515;29;20107;-86
2023/09/14 00:07:32;;;;;;;1751.30;999.90;;;12.90;99.90;;;;;;4894259;29;20047;-86
2023/09/14 00:09:58;;;;;;;1999.90;999.90;;;12.90;99.90;;;;;;4895981;29;20044;-85
2023/09/14 00:12:24;;;;;;;1999.90;999.90;;;12.80;99.90;;;;;;4895386;29;20051;-86
2023/09/14 00:14:50;;;;;;;1999.90;999.90;;;12.80;99.90;;;;;;4895929;29;20044;-86
2023/09/14 00:17:15;;;;;;;1999.90;999.90;;;12.80;99.90;;;;;;4894073;29;20069;-86
2023/09/14 00:19:41;;;;;;;1999.90;999.90;;;12.70;99.90;;;;;;4910376;29;20059;-86
2023/09/14 00:22:07;;;;;;;1769.75;999.90;;;12.70;99.90;;;;;;4887009;29;20223;-86
2023/09/14 00:24:32;;;;;;;1769.18;997.38;;;12.70;99.90;;;;;;4910907;29;20044;-85
2023/09/14 00:26:58;;;;;;;1999.90;999.90;;;12.70;99.90;;;;;;4894769;29;20044;-86
2023/09/14 00:29:24;;;;;;;1784.78;979.72;;;12.80;99.90;;;;;;4895896;29;20044;-86
2023/09/14 00:31:49;;;;;;;1853.43;995.42;;;12.80;99.90;;;;;;4895023;29;20044;-86
2023/09/14 00:34:15;;;;;;;1483.80;926.67;;;12.80;99.90;;;;;;4894841;29;20060;-86
2023/09/14 00:36:41;;;;;;;1395.40;905.78;;;12.80;99.90;;;;;;4910492;29;20070;-85
2023/09/14 00:39:09;;;;;;;1406.22;908.90;;;12.80;99.90;;;;;;4895574;29;20111;-86
2023/09/14 00:41:35;;;;;;;1537.32;940.40;;;12.80;99.90;;;;;;4909728;29;20052;-86
2023/09/14 00:44:01;;;;;;;1339.03;906.70;;;12.90;99.90;;;;;;4895375;29;20063;-86
2023/09/14 00:46:28;;;;;;;1432.30;931.42;;;12.80;99.90;;;;;;4895991;29;20111;-86
2023/09/14 00:48:55;;;;;;;1410.68;934.47;;;12.80;99.90;;;;;;4909593;29;20056;-86
2023/09/14 00:51:21;;;;;;;1071.78;851.13;;;12.90;99.90;;;;;;4895638;29;20048;-86
2023/09/14 00:53:49;;;;;;;1181.43;896.08;;;12.90;99.90;;;;;;4894669;29;20131;-86
2023/09/14 00:56:15;;;;;;;1295.85;916.35;;;12.90;99.90;;;;;;4910684;29;20392;-86
2023/09/14 00:58:41;;;;;;;1207.07;896.15;;;12.90;99.90;;;;;;4894001;29;20079;-86
2023/09/14 01:01:07;;;;;;;1158.03;889.05;;;12.90;99.90;;;;;;4911563;29;20111;-86
2023/09/14 01:03:33;;;;;;;1156.63;887.05;;;12.90;99.90;;;;;;4893884;29;20055;-85
2023/09/14 01:05:59;;;;;;;988.38;834.70;;;12.90;99.90;;;;;;4894622;29;20052;-86
2023/09/14 01:08:25;;;;;;;1110.18;878.17;;;13.00;99.90;;;;;;4895338;29;20043;-86
2023/09/14 01:10:51;;;;;;;974.30;835.08;;;12.90;99.90;;;;;;4909104;29;20487;-85
2023/09/14 01:13:43;;;;;;;1005.00;842.47;;;12.90;99.90;;;;;;4895112;29;20389;-86
2023/09/14 01:16:32;;;;;;;1082.65;882.88;;;13.00;99.90;;;;;;4894693;29;20064;-86
2023/09/14 01:19:08;;;;;;;959.97;831.30;;;13.00;99.90;;;;;;4912029;29;20580;-85
2023/09/14 01:21:40;;;;;;;1090.18;880.53;;;12.90;99.90;;;;;;4907472;29;20048;-86
2023/09/14 01:24:38;;;;;;;1148.05;897.47;;;12.90;99.90;;;;;;4926196;29;20527;-86
2023/09/14 01:27:05;;;;;;;1046.65;864.58;;;12.90;99.90;;;;;;4894560;29;20087;-86
2023/09/14 01:29:30;;;;;;;1068.20;876.03;;;12.90;99.90;;;;;;4894836;29;20060;-86
2023/09/14 01:31:56;;;;;;;1040.47;865.88;;;12.90;99.90;;;;;;4909609;29;20043;-86
2023/09/14 01:34:22;;;;;;;983.97;838.72;;;12.90;99.90;;;;;;4910014;29;20052;-86
2023/09/14 01:36:58;;;;;;;1064.65;859.60;;;12.90;99.90;;;;;;4894216;29;20139;-86
2023/09/14 01:39:25;;;;;;;1040.13;855.97;;;13.00;99.90;;;;;;4895251;29;20143;-86
2023/09/14 01:41:55;;;;;;;1013.05;856.20;;;13.00;99.90;;;;;;4893900;29;20312;-86
2023/09/14 01:44:28;;;;;;;897.40;794.47;;;13.00;99.90;;;;;;4894023;29;20399;-86
2023/09/14 01:46:54;;;;;;;;;;;13.10;99.90;;;;;;4894349;29;20051;-86
2023/09/14 01:49:20;;;;;;;999.88;839.83;;;13.00;99.90;;;;;;4910315;29;20291;-86
2023/09/14 01:51:46;;;;;;;1036.75;845.92;;;13.00;99.90;;;;;;4893878;29;20409;-86
2023/09/14 01:54:11;;;;;;;1023.78;843.13;;;13.10;99.90;;;;;;4910263;29;20064;-85
2023/09/14 01:56:37;;;;;;;885.85;787.97;;;13.10;99.90;;;;;;4889438;29;20592;-86
2023/09/14 01:59:03;;;;;;;943.58;813.55;;;13.00;99.90;;;;;;4907087;29;20075;-86
2023/09/14 02:01:29;;;;;;;930.50;811.22;;;13.00;99.90;;;;;;4895114;29;20055;-86
2023/09/14 02:03:54;;;;;;;842.03;751.72;;;12.90;99.90;;;;;;4893565;29;20040;-86
2023/09/14 02:06:20;;;;;;;843.20;753.90;;;12.90;99.90;;;;;;4893489;29;20095;-86
2023/09/14 02:08:46;;;;;;;844.95;753.25;;;12.90;99.90;;;;;;4894034;29;20047;-86
2023/09/14 02:11:13;;;;;;;895.10;784.45;;;12.80;99.90;;;;;;4893746;29;20052;-86
2023/09/14 02:13:42;;;;;;;862.20;767.97;;;12.80;99.90;;;;;;4893294;29;20127;-86
2023/09/14 02:16:09;;;;;;;918.60;801.20;;;12.70;99.90;;;;;;4909543;29;20056;-85
2023/09/14 02:18:35;;;;;;;839.45;748.53;;;12.60;99.90;;;;;;4893485;29;20081;-85
2023/09/14 02:21:01;;;;;;;886.10;788.47;;;12.60;99.90;;;;;;4908931;29;20103;-85
2023/09/14 02:23:26;;;;;;;928.90;816.72;;;12.60;99.90;;;;;;4893720;29;20044;-85
2023/09/14 02:25:52;;;;;;;902.50;799.08;;;12.50;99.90;;;;;;4898020;29;20064;-86
2023/09/14 02:28:20;;;;;;;928.20;797.60;;;12.50;99.90;;;;;;4892255;29;20064;-86
2023/09/14 02:30:47;;;;;;;935.13;806.25;;;12.40;99.90;;;;;;4912539;29;20044;-85
2023/09/14 02:33:13;;;;;;;834.10;744.08;;;12.40;99.90;;;;;;4897179;29;20577;-86
2023/09/14 02:35:40;;;;;;;896.97;791.55;;;12.30;99.90;;;;;;4913282;29;20134;-86
2023/09/14 02:38:06;;;;;;;950.67;817.13;;;12.30;99.90;;;;;;4897783;29;20056;-86
2023/09/14 02:40:33;;;;;;;842.65;751.15;;;12.20;99.90;;;;;;4896299;29;20348;-86
2023/09/14 02:42:59;;;;;;;919.75;801.60;;;12.20;99.90;;;;;;4897780;29;20043;-86
2023/09/14 02:45:24;;;;;;;852.55;761.28;;;12.20;99.90;;;;;;4897676;29;20044;-85
2023/09/14 02:47:50;;;;;;;947.25;826.42;;;12.20;99.90;;;;;;4911978;29;20083;-85
2023/09/14 02:50:16;;;;;;;843.97;752.50;;;12.10;99.90;;;;;;4898310;29;20377;-86
2023/09/14 02:52:42;;;;;;;910.60;807.90;;;12.10;99.90;;;;;;4896765;29;20051;-85
2023/09/14 02:55:08;;;;;;;926.25;811.72;;;12.00;99.90;;;;;;4913269;29;20040;-86
2023/09/14 02:57:35;;;;;;;933.65;814.72;;;12.00;99.90;;;;;;4908284;29;20048;-85
2023/09/14 03:00:00;;;;;;;890.92;792.50;;;12.00;99.90;;;;;;4897357;29;20044;-85
2023/09/14 03:02:28;;;;;;;925.03;797.33;;;11.90;99.90;;;;;;4896140;29;20099;-86
2023/09/14 03:04:53;;;;;;;827.63;739.65;;;11.90;99.90;;;;;;4896917;29;20055;-85
2023/09/14 03:07:19;;;;;;;846.55;758.42;;;11.80;99.90;;;;;;4913250;29;20055;-85
2023/09/14 03:09:45;;;;;;;907.63;807.13;;;11.80;99.90;;;;;;4895882;29;20508;-85
2023/09/14 03:12:10;;;;;;;959.10;830.03;;;11.70;99.90;;;;;;4896806;29;20090;-86
2023/09/14 03:14:36;;;;;;;905.92;807.55;;;11.60;99.90;;;;;;4897529;29;20046;-85
2023/09/14 03:17:02;;;;;;;888.70;791.78;;;11.60;99.90;;;;;;4911314;29;20127;-85
2023/09/14 03:19:28;;;;;;;961.60;843.28;;;11.60;99.90;;;;;;4897705;29;20070;-86
2023/09/14 03:21:54;;;;;;;959.85;841.35;;;11.50;99.90;;;;;;4899981;29;20055;-86
2023/09/14 03:24:20;;;;;;;907.80;807.30;;;11.50;99.90;;;;;;4896652;29;20047;-86
2023/09/14 03:26:46;;;;;;;968.45;836.55;;;11.40;99.90;;;;;;4896402;29;20052;-85
2023/09/14 03:29:12;;;;;;;993.25;839.30;;;11.40;99.90;;;;;;4896657;29;20120;-85
2023/09/14 03:31:38;;;;;;;930.92;828.72;;;11.40;99.90;;;;;;4911588;29;20059;-86
2023/09/14 03:34:05;;;;;;;1012.60;832.70;;;11.30;99.90;;;;;;4911872;29;20131;-85
2023/09/14 03:36:34;;;;;;;978.28;834.13;;;11.30;99.90;;;;;;4896137;29;20076;-86
2023/09/14 03:38:59;;;;;;;1016.88;843.65;;;11.30;99.90;;;;;;4912219;29;20100;-85
2023/09/14 03:41:25;;;;;;;1095.97;879.50;;;11.20;99.90;;;;;;4896797;29;20048;-85
2023/09/14 03:43:51;;;;;;;1143.82;887.63;;;11.20;99.90;;;;;;4911393;29;20209;-85
2023/09/14 03:46:16;;;;;;;1171.32;891.95;;;11.20;99.90;;;;;;4896269;29;20114;-85
2023/09/14 03:48:42;;;;;;;1164.00;886.13;;;11.20;99.90;;;;;;4911372;29;20105;-85
2023/09/14 03:51:08;;;;;;;1145.97;876.78;;;11.10;99.90;;;;;;4895618;29;20118;-86
2023/09/14 03:53:34;;;;;;;1073.72;866.10;;;11.10;99.90;;;;;;4896056;29;20071;-86
2023/09/14 03:56:00;;;;;;;1236.53;883.38;;;11.00;99.90;;;;;;4895893;29;20153;-86
2023/09/14 03:58:26;;;;;;;1057.63;869.13;;;11.00;99.90;;;;;;4886066;29;20196;-85
2023/09/14 04:00:53;;;;;;;1162.78;863.03;;;10.90;99.90;;;;;;4911701;29;20048;-86
2023/09/14 04:03:19;;;;;;;1186.30;882.35;;;10.90;99.90;;;;;;4895816;29;20044;-85
2023/09/14 04:05:45;;;;;;;1082.28;873.65;;;10.80;99.90;;;;;;4895076;29;20481;-85
2023/09/14 04:08:12;;;;;;;1040.43;856.53;;;10.70;99.90;;;;;;4911766;29;20044;-85
2023/09/14 04:10:39;;;;;;;1060.00;871.42;;;10.70;99.90;;;;;;4906635;29;20483;-85
2023/09/14 04:13:28;;;;;;;1193.22;867.45;;;10.60;99.90;;;;;;4911495;29;20080;-85
2023/09/14 04:15:55;;;;;;;1237.03;879.53;;;10.50;99.90;;;;;;4910961;29;20496;-85
2023/09/14 04:18:21;;;;;;;1133.97;890.03;;;10.50;99.90;;;;;;4910695;29;20522;-86
2023/09/14 04:20:48;;;;;;;1157.55;905.30;;;10.40;99.90;;;;;;4895437;29;20048;-86
2023/09/14 04:23:13;;;;;;;1385.35;937.97;;;10.40;99.90;;;;;;4895511;29;20051;-85
2023/09/14 04:25:44;;;;;;;1662.55;961.38;;;10.40;99.90;;;;;;4911890;29;20501;-84
2023/09/14 04:28:21;;;;;;;1494.70;956.33;;;10.30;99.90;;;;;;4894098;29;20044;-85
2023/09/14 04:30:51;;;;;;;1492.75;960.75;;;10.30;99.90;;;;;;4909050;29;20376;-84
2023/09/14 04:33:18;;;;;;;1335.43;944.30;;;10.30;99.90;;;;;;4882212;29;20499;-85
2023/09/14 04:35:45;;;;;;;1914.35;997.50;;;10.20;99.90;;;;;;4893944;29;20400;-85
2023/09/14 04:38:11;;;;;;;1881.93;999.90;;;10.10;99.90;;;;;;4910375;29;20044;-85
2023/09/14 04:40:40;;;;;;;1824.97;986.85;;;10.10;99.90;;;;;;4908835;29;20111;-85
2023/09/14 04:43:06;;;;;;;1561.63;973.53;;;10.10;99.90;;;;;;4895351;29;20061;-85
2023/09/14 04:45:32;;;;;;;1999.90;999.90;;;10.00;99.90;;;;;;4895089;29;20484;-84
2023/09/14 04:47:59;;;;;;;1976.60;999.90;;;10.00;99.90;;;;;;4908074;29;20462;-85
2023/09/14 04:50:24;;;;;;;1666.70;997.33;;;9.90;99.90;;;;;;4893495;29;20063;-85
2023/09/14 04:52:50;;;;;;;1813.15;999.90;;;9.90;99.90;;;;;;4893020;29;20040;-85
2023/09/14 04:55:16;;;;;;;1922.93;999.90;;;10.00;99.90;;;;;;4893610;29;20062;-85
2023/09/14 04:57:42;;;;;;;1999.90;999.90;;;9.80;99.90;;;;;;4888872;29;20112;-84
2023/09/14 05:00:12;;;;;;;1850.32;999.90;;;9.90;99.90;;;;;;4887846;29;20503;-85
2023/09/14 05:02:39;;;;;;;1575.38;995.97;;;9.90;99.90;;;;;;4898311;29;20512;-85
2023/09/14 05:05:06;;;;;;;1999.90;999.90;;;9.90;99.90;;;;;;4910586;29;20107;-85
2023/09/14 05:07:32;;;;;;;1742.43;999.90;;;9.90;99.90;;;;;;4881095;29;20100;-85
2023/09/14 05:09:57;;;;;;;1999.90;999.90;;;9.90;99.90;;;;;;4891968;29;20056;-84
2023/09/14 05:12:24;;;;;;;1999.90;999.90;;;9.90;99.90;;;;;;4884324;29;20123;-85
2023/09/14 05:14:49;;;;;;;1999.90;999.90;;;9.90;99.90;;;;;;4898691;29;20051;-86
2023/09/14 05:17:15;;;;;;;1635.82;999.47;;;9.90;99.90;;;;;;4903505;29;20107;-85
2023/09/14 05:19:44;;;;;;;1815.07;999.90;;;10.00;99.90;;;;;;4909567;29;20574;-85
2023/09/14 05:22:10;;;;;;;1999.13;999.90;;;9.80;99.90;;;;;;4894230;29;20047;-85
2023/09/14 05:24:39;;;;;;;1999.90;999.90;;;9.80;99.90;;;;;;4908978;29;20489;-85
2023/09/14 05:27:05;;;;;;;1999.55;999.90;;;9.80;99.90;;;;;;4894320;29;20060;-85
2023/09/14 05:29:31;;;;;;;1999.90;999.90;;;9.80;99.90;;;;;;4910479;29;20046;-85
2023/09/14 05:31:57;;;;;;;1398.97;980.25;;;10.10;99.90;;;;;;4903546;29;20052;-85
2023/09/14 05:34:24;;;;;;;1955.70;999.90;;;10.00;99.90;;;;;;4894755;29;20044;-85
2023/09/14 05:36:49;;;;;;;1821.38;999.60;;;10.00;99.90;;;;;;4893318;29;20048;-85
2023/09/14 05:39:16;;;;;;;1916.38;996.95;;;10.00;99.90;;;;;;4892166;29;20480;-85
2023/09/14 05:41:41;;;;;;;1913.72;998.95;;;10.00;99.90;;;;;;4893722;29;20135;-85
2023/09/14 05:44:09;;;;;;;1764.80;991.70;;;9.90;99.90;;;;;;4909256;29;20178;-85
2023/09/14 05:46:35;;;;;;;1530.07;971.78;;;9.90;99.90;;;;;;4894295;29;20500;-84
2023/09/14 05:49:01;;;;;;;1999.90;999.90;;;9.90;99.90;;;;;;4892025;29;20139;-85
2023/09/14 05:51:28;;;;;;;1999.90;999.90;;;9.90;99.90;;;;;;4917695;29;20127;-84
2023/09/14 05:53:54;;;;;;;1094.03;905.03;;;10.00;99.90;;;;;;4896783;29;20576;-85
2023/09/14 05:56:20;;;;;;;1999.90;999.90;;;10.10;99.90;;;;;;4893903;29;20127;-85
2023/09/14 05:58:46;;;;;;;1929.97;996.10;;;10.10;99.90;;;;;;4898699;29;20134;-85
2023/09/14 06:01:11;;;;;;;1999.90;999.90;;;10.10;99.90;;;;;;4894419;29;20047;-84
2023/09/14 06:03:40;;;;;;;1989.18;999.90;;;10.10;99.90;;;;;;4908435;29;20028;-85
2023/09/14 06:06:06;;;;;;;1331.03;936.97;;;10.30;99.90;;;;;;4908135;29;20472;-85
2023/09/14 06:08:32;;;;;;;1999.90;999.90;;;10.10;99.90;;;;;;4904745;29;20073;-84
2023/09/14 06:10:58;;;;;;;1999.90;999.90;;;10.20;99.90;;;;;;4900082;29;20500;-85
2023/09/14 06:13:24;;;;;;;1999.90;999.90;;;10.20;99.90;;;;;;4892906;29;20083;-85
2023/09/14 06:15:50;;;;;;;1509.53;983.53;;;10.20;99.90;;;;;;4900330;29;20083;-85
2023/09/14 06:18:16;;;;;;;1777.80;982.55;;;10.30;99.90;;;;;;4887137;29;20052;-85
2023/09/14 06:20:41;;;;;;;1999.90;999.90;;;10.30;99.90;;;;;;4900476;29;20075;-85
2023/09/14 06:23:07;;;;;;;1999.90;999.90;;;10.30;99.90;;;;;;4893878;29;20141;-85
2023/09/14 06:25:33;;;;;;;1962.10;999.90;;;10.40;99.90;;;;;;4908105;29;20472;-85
2023/09/14 06:27:59;;;;;;;1433.57;979.95;;;10.50;99.90;;;;;;4910126;29;20091;-85
2023/09/14 06:30:24;;;;;;;1999.90;999.90;;;10.60;99.90;;;;;;4894667;29;20507;-86
2023/09/14 06:32:50;;;;;;;1999.90;999.90;;;10.60;99.90;;;;;;4891977;29;20048;-86
2023/09/14 06:35:16;;;;;;;1999.90;999.90;;;10.70;99.90;;;;;;4891348;29;20087;-85
2023/09/14 06:37:42;;;;;;;1626.28;999.90;;;10.70;99.90;;;;;;4903480;29;20055;-85
2023/09/14 06:40:08;;;;;;;1999.90;999.90;;;10.80;99.90;;;;;;4893607;29;20407;-86
2023/09/14 06:42:34;;;;;;;1999.90;999.90;;;10.90;99.90;;;;;;4893328;29;20040;-85
2023/09/14 06:45:00;;;;;;;1999.90;999.90;;;10.90;99.90;;;;;;4890324;29;20048;-85
2023/09/14 06:47:26;;;;;;;1999.90;999.90;;;11.00;99.90;;;;;;4889736;29;20496;-86
2023/09/14 06:49:52;;;;;;;1999.90;999.90;;;11.20;99.90;;;;;;4908600;29;20123;-85
2023/09/14 06:52:18;;;;;;;1999.90;999.90;;;11.30;99.90;;;;;;4890058;29;20091;-82
2023/09/14 06:54:46;;;;;;;1999.90;999.90;;;11.40;99.90;;;;;;4907909;29;20047;-81
2023/09/14 06:57:12;;;;;;;1999.90;999.90;;;11.50;99.90;;;;;;4906794;29;20047;-82
2023/09/14 06:59:38;;;;;;;1999.90;999.90;;;11.50;99.90;;;;;;4905119;29;20051;-84
2023/09/14 07:02:03;;;;;;;1999.90;999.90;;;11.50;99.90;;;;;;4880559;29;20051;-84
2023/09/14 07:04:29;;;;;;;1999.90;999.90;;;11.60;99.90;;;;;;4893896;29;20107;-84
2023/09/14 07:06:55;;;;;;;1999.90;999.90;;;11.70;99.90;;;;;;4892193;29;20052;-83
2023/09/14 07:09:21;;;;;;;1999.90;999.90;;;11.80;99.90;;;;;;4904581;29;20144;-83
2023/09/14 07:11:46;;;;;;;1999.90;999.90;;;11.90;99.90;;;;;;4890420;29;20055;-82
2023/09/14 07:14:12;;;;;;;1999.90;999.90;;;12.00;99.90;;;;;;4897867;29;20500;-82
2023/09/14 07:16:38;;;;;;;1999.90;999.90;;;12.20;99.90;;;;;;4889405;29;20044;-83
2023/09/14 07:19:03;;;;;;;1999.90;999.90;;;12.30;99.90;;;;;;4912510;29;20059;-83
2023/09/14 07:21:32;;;;;;;1999.90;999.90;;;12.40;99.90;;;;;;4894368;29;20040;-83
2023/09/14 07:23:59;;;;;;;1999.90;999.90;;;12.50;99.90;;;;;;4896636;29;20056;-83
2023/09/14 07:26:26;;;;;;;1999.90;999.90;;;12.60;99.90;;;;;;4894180;29;20091;-83
2023/09/14 07:28:51;;;;;;;1967.25;999.90;;;12.70;99.90;;;;;;4893891;29;20048;-83
2023/09/14 07:31:17;;;;;;;1881.78;999.90;;;12.80;99.90;;;;;;4910011;29;20086;-83
2023/09/14 07:33:46;;;;;;;1868.13;999.90;;;12.90;99.90;;;;;;4909623;29;20040;-83
2023/09/14 07:36:12;;;;;;;1573.07;999.90;;;13.20;99.90;;;;;;4909232;29;20055;-83
2023/09/14 07:38:37;;;;;;;1498.13;999.90;;;13.20;99.90;;;;;;4911504;29;20373;-83
2023/09/14 07:41:03;;;;;;;1715.95;999.90;;;13.40;99.90;;;;;;4894066;29;20044;-83
2023/09/14 07:43:29;;;;;;;1468.32;999.90;;;13.60;99.90;;;;;;4893609;29;20048;-83
2023/09/14 07:45:58;;;;;;;1512.97;999.90;;;13.70;99.90;;;;;;4899408;29;20436;-83
2023/09/14 07:48:24;;;;;;;1384.68;990.10;;;13.80;99.90;;;;;;4895838;29;20400;-84
2023/09/14 07:50:50;;;;;;;1330.53;976.17;;;14.00;99.90;;;;;;4895002;29;20044;-83
2023/09/14 07:53:16;;;;;;;1136.90;919.40;;;14.10;99.90;;;;;;4896494;29;20119;-82
2023/09/14 07:55:42;;;;;;;1175.75;939.78;;;14.30;99.90;;;;;;4910707;29;20496;-83
2023/09/14 07:58:08;;;;;;;1012.03;883.75;;;14.40;99.90;;;;;;4910503;29;20051;-83
2023/09/14 08:00:34;;;;;;;957.58;854.45;;;14.60;99.90;;;;;;4911141;29;20040;-83
2023/09/14 08:03:01;;;;;;;876.33;783.47;;;14.70;99.90;;;;;;4895625;29;20052;-83
2023/09/14 08:05:26;;;;;;;964.83;858.78;;;14.90;99.90;;;;;;4908515;29;20063;-86
2023/09/14 08:07:53;;;;;;;947.85;845.38;;;15.10;99.90;;;;;;4895783;29;20047;-86
2023/09/14 08:10:19;;;;;;;949.90;846.45;;;15.20;99.90;;;;;;4911751;29;20044;-85
2023/09/14 08:12:44;;;;;;;870.40;781.67;;;15.30;99.90;;;;;;4895277;29;20051;-86
2023/09/14 08:15:11;;;;;;;804.15;728.40;;;15.40;99.90;;;;;;4896862;29;20369;-86
2023/09/14 08:17:39;;;;;;;717.63;651.60;;;15.40;99.90;;;;;;4896181;29;20116;-86
2023/09/14 08:20:06;;;;;;;901.05;805.97;;;15.40;99.90;;;;;;4896223;29;20059;-86
2023/09/14 08:22:32;;;;;;;1033.18;903.22;;;15.50;99.90;;;;;;4895065;29;20389;-85
2023/09/14 08:25:00;;;;;;;742.72;673.85;;;15.60;99.90;;;;;;4909035;29;20127;-86
2023/09/14 08:27:27;;;;;;;745.72;675.25;;;15.70;99.90;;;;;;4909300;29;20075;-85
2023/09/14 08:29:53;;;;;;;803.42;725.33;;;15.90;99.90;;;;;;4909163;29;20044;-86
2023/09/14 08:32:18;;;;;;;746.88;677.95;;;16.10;99.90;;;;;;4908599;29;20518;-86
2023/09/14 08:34:44;;;;;;;757.75;687.50;;;16.20;99.90;;;;;;4909712;29;20040;-86
2023/09/14 08:37:10;;;;;;;722.80;656.25;;;16.40;99.90;;;;;;4910172;29;20588;-86
2023/09/14 08:39:37;;;;;;;708.55;644.85;;;16.40;99.90;;;;;;4894909;29;20085;-86
2023/09/14 08:42:04;;;;;;;621.17;566.63;;;16.50;99.90;;;;;;4895571;29;20191;-86
2023/09/14 08:44:34;;;;;;;540.05;491.25;;;16.60;99.90;;;;;;4896007;29;20063;-86
2023/09/14 08:47:01;;;;;;;665.33;603.95;;;16.60;99.90;;;;;;4894287;29;20184;-86
2023/09/14 08:49:28;;;;;;;573.60;521.63;;;16.60;99.90;;;;;;4896047;29;20107;-87
2023/09/14 08:51:56;;;;;;;762.50;689.85;;;16.70;99.90;;;;;;4894856;29;20441;-86
2023/09/14 08:54:23;;;;;;;753.47;682.28;;;16.70;99.90;;;;;;4895147;29;20037;-86
2023/09/14 08:56:49;;;;;;;828.38;746.67;;;16.80;99.90;;;;;;4894774;29;20056;-86
2023/09/14 08:59:20;;;;;;;769.85;695.28;;;16.80;99.90;;;;;;4884051;29;20100;-87
2023/09/14 09:01:48;;;;;;;771.72;697.75;;;16.80;99.90;;;;;;4894409;29;20258;-86
2023/09/14 09:04:14;;;;;;;786.17;711.63;;;16.90;99.90;;;;;;4895345;29;20096;-87
2023/09/14 09:06:41;;;;;;;745.50;675.33;;;17.00;99.90;;;;;;4895288;29;20040;-87
2023/09/14 09:09:10;;;;;;;648.55;588.63;;;17.00;99.90;;;;;;4910962;29;20043;-86
2023/09/14 09:11:37;;;;;;;816.58;737.03;;;17.10;99.90;;;;;;4895195;29;20048;-87
2023/09/14 09:14:03;;;;;;;617.70;561.00;;;17.20;99.90;;;;;;4894957;29;20620;-87
2023/09/14 09:16:30;;;;;;;694.17;628.35;;;17.30;99.90;;;;;;4895543;29;20044;-87
2023/09/14 09:19:06;;;;;;;593.05;539.55;;;17.40;99.90;;;;;;4910055;29;20048;-87
2023/09/14 09:21:33;;;;;;;597.00;542.45;;;17.50;99.90;;;;;;4894366;29;20073;-87
2023/09/14 09:24:10;;;;;;;700.80;635.58;;;17.50;99.90;;;;;;4894964;29;20560;-87
2023/09/14 09:26:38;;;;;;;726.80;654.70;;;17.60;99.90;;;;;;4894203;29;20051;-86
2023/09/14 09:29:13;;;;;;;661.47;600.53;;;17.70;99.90;;;;;;4894939;29;20497;-87
2023/09/14 09:31:44;;;;;;;482.15;440.65;;;17.80;99.90;;;;;;4882156;29;20092;-86
2023/09/14 09:34:11;;;;;;;675.95;614.10;;;17.90;99.90;;;;;;4910760;29;20055;-87
2023/09/14 09:36:38;;;;;;;625.40;567.78;;;18.00;99.90;;;;;;4894807;29;20059;-87
2023/09/14 09:39:05;;;;;;;545.78;497.13;;;18.10;99.90;;;;;;4895346;29;20211;-87
2023/09/14 09:41:34;;;;;;;671.53;610.63;;;18.20;99.90;;;;;;4895079;29;20130;-87
2023/09/14 09:44:05;;;;;;;556.80;507.55;;;18.30;99.90;;;;;;4910207;29;20079;-87
2023/09/14 09:46:36;;;;;;;309.35;287.05;;;18.40;99.90;;;;;;4911182;29;20060;-87
2023/09/14 09:49:22;;;;;;;430.45;394.90;;;18.50;99.90;;;;;;4910089;29;20056;-87
2023/09/14 09:51:49;;;;;;;575.25;523.42;;;18.60;99.90;;;;;;4894485;29;20138;-87
2023/09/14 09:54:18;;;;;;;460.25;420.65;;;18.70;99.90;;;;;;4894970;29;20051;-87
2023/09/14 09:56:43;;;;;;;204.35;189.93;;;18.70;99.90;;;;;;4909688;29;20055;-87
2023/09/14 09:59:10;;;;;;;290.98;269.77;;;18.70;99.90;;;;;;4895313;29;20044;-87
2023/09/14 10:01:40;;;;;;;360.55;331.88;;;18.60;99.90;;;;;;4895151;29;20056;-87
2023/09/14 10:04:17;;;;;;;555.67;506.77;;;18.50;99.90;;;;;;4898498;29;20083;-88
2023/09/14 10:06:55;;;;;;;405.67;374.00;;;18.50;99.90;;;;;;4894627;29;20048;-87
2023/09/14 10:09:22;;;;;;;463.17;424.30;;;18.50;99.90;;;;;;4895508;29;20071;-88
2023/09/14 10:11:51;;;;;;;235.55;218.65;;;18.50;99.90;;;;;;4893981;29;20044;-88
2023/09/14 10:14:20;;;;;;;672.95;613.60;;;18.50;99.90;;;;;;4894733;29;20492;-88
2023/09/14 10:16:50;;;;;;;278.17;257.33;;;18.50;99.90;;;;;;4910574;29;20051;-88
2023/09/14 10:19:18;;;;;;;406.50;374.67;;;18.50;99.90;;;;;;4894100;29;20048;-88
2023/09/14 10:21:46;;;;;;;201.13;187.52;;;18.50;99.90;;;;;;4910394;29;20484;-87
2023/09/14 10:24:12;;;;;;;352.13;324.33;;;18.40;99.90;;;;;;4911052;29;20056;-87
2023/09/14 10:26:39;;;;;;;645.20;586.80;;;18.40;99.90;;;;;;4893768;29;20370;-88
2023/09/14 10:29:09;;;;;;;179.35;166.75;;;18.50;99.90;;;;;;4895249;29;20044;-87
2023/09/14 10:31:35;;;;;;;225.82;209.50;;;18.50;99.90;;;;;;4894451;29;20131;-88
2023/09/14 10:34:03;;;;;;;330.58;304.60;;;18.50;99.90;;;;;;4894949;29;20055;-87
2023/09/14 10:36:34;;;;;;;553.15;501.80;;;18.50;99.90;;;;;;4894221;29;20060;-87
2023/09/14 10:39:01;;;;;;;596.90;542.03;;;18.40;99.90;;;;;;4893238;29;20048;-88
2023/09/14 10:41:29;;;;;;;375.70;346.77;;;18.40;99.90;;;;;;4894746;29;20083;-87
2023/09/14 10:43:55;;;;;;;286.08;265.58;;;18.60;99.90;;;;;;4894264;29;20500;-88
2023/09/14 10:46:29;;;;;;;392.65;359.73;;;18.70;99.90;;;;;;4909276;29;20560;-84
2023/09/14 10:48:57;;;;;;;805.13;723.83;;;18.80;99.90;;;;;;4898139;29;20478;-84
2023/09/14 10:51:23;;;;;;;617.97;562.70;;;19.00;99.90;;;;;;4899258;29;20092;-84
2023/09/14 10:53:50;;;;;;;779.88;702.67;;;19.10;99.90;;;;;;4881874;29;20413;-85
2023/09/14 10:56:20;;;;;;;333.38;307.92;;;19.20;99.90;;;;;;4896089;29;20052;-89
2023/09/14 10:58:51;;;;;;;522.70;477.20;;;19.40;99.90;;;;;;4897846;29;20497;-90
2023/09/14 11:01:26;;;;;;;279.98;259.10;;;19.60;99.90;;;;;;4890203;29;20044;-87
2023/09/14 11:04:13;;;;;;;210.27;195.60;;;19.70;99.90;;;;;;4897656;29;20051;-87
2023/09/14 11:06:59;;;;;;;249.70;231.55;;;19.50;99.90;;;;;;4885114;29;20049;-83
2023/09/14 11:09:25;;;;;;;371.48;341.92;;;19.30;99.90;;;;;;4929667;29;20564;-84
2023/09/14 11:11:52;;;;;;;333.35;307.88;;;19.10;99.90;;;;;;4896426;29;20118;-84
2023/09/14 11:14:20;;;;;;;687.15;624.38;;;19.00;99.90;;;;;;4912947;29;20388;-84
2023/09/14 11:16:50;;;;;;;353.27;326.98;;;19.00;99.90;;;;;;4894526;29;20055;-84
2023/09/14 11:19:31;;;;;;;332.70;307.85;;;19.20;99.90;;;;;;4896999;29;20076;-86
2023/09/14 11:22:11;;;;;;;291.30;269.35;;;19.40;99.90;;;;;;4890656;29;20047;-86
2023/09/14 11:24:36;;;;;;;408.83;375.30;;;19.50;99.90;;;;;;4886922;29;20053;-85
2023/09/14 11:27:03;;;;;;;298.17;275.88;;;19.70;99.90;;;;;;4884304;29;20052;-85
2023/09/14 11:29:32;;;;;;;262.23;242.85;;;19.80;99.90;;;;;;4893285;29;20052;-84
2023/09/14 11:32:03;;;;;;;306.23;282.83;;;19.80;99.90;;;;;;4899710;29;20049;-83
2023/09/14 11:34:31;;;;;;;238.13;220.70;;;19.80;99.90;;;;;;4897099;29;20054;-85
2023/09/14 11:37:05;;;;;;;337.17;309.95;;;19.80;99.90;;;;;;4884618;29;20056;-85
2023/09/14 11:39:31;;;;;;;237.32;220.70;;;19.80;99.90;;;;;;4896579;29;20054;-84
2023/09/14 11:42:00;;;;;;;388.38;355.92;;;19.70;99.90;;;;;;4893473;29;20485;-84
2023/09/14 11:44:31;;;;;;;228.20;211.50;;;19.50;99.90;;;;;;4892486;29;20064;-84
2023/09/14 11:47:01;;;;;;;259.92;241.30;;;19.40;99.90;;;;;;4893898;29;20071;-85
2023/09/14 11:49:31;;;;;;;385.55;354.10;;;19.30;99.90;;;;;;4897100;29;20090;-85
2023/09/14 11:51:57;;;;;;;217.48;201.65;;;19.20;99.90;;;;;;4883911;29;20057;-85
2023/09/14 11:54:30;;;;;;;219.40;202.80;;;19.30;99.90;;;;;;4890333;29;20040;-86
2023/09/14 11:57:07;;;;;;;227.07;210.43;;;19.40;99.90;;;;;;4906042;29;20064;-86
2023/09/14 11:59:33;;;;;;;308.55;283.60;;;19.60;99.90;;;;;;4885232;29;20135;-85
2023/09/14 12:02:01;;;;;;;411.55;378.80;;;19.70;99.90;;;;;;4902945;29;20127;-83
2023/09/14 12:04:30;;;;;;;479.08;437.90;;;20.00;99.90;;;;;;4896518;29;20136;-83